Time;durP1;ratioP1;P1;durP2;ratioP2;P2;SDS_P1;SDS_P2;PMS_P1;PMS_P2;Temp;Humidity;BMP_temperature;BMP_pressure;BME280_temperature;BME280_humidity;BME280_pressure;Samples;Min_cycle;Max_cycle;Signal;HPM_P1;HPM_P2
2021/12/21 00:00:36;;;;;;;1.00;1.00;;;-3.10;99.90;;;;;;5098682;28;20035;-87
2021/12/21 00:03:01;;;;;;;0.90;0.90;;;-3.00;99.90;;;;;;5098669;28;20043;-85
2021/12/21 00:05:29;;;;;;;0.90;0.90;;;-2.60;99.90;;;;;;5150066;27;20391;-87
2021/12/21 00:07:57;;;;;;;0.90;0.90;;;-2.90;99.90;;;;;;5153131;27;20059;-87
2021/12/21 00:10:27;;;;;;;0.80;0.80;;;-2.90;99.90;;;;;;5124547;28;20040;-86
2021/12/21 00:15:54;;;;;;;0.90;0.90;;;-2.80;99.90;;;;;;5125534;28;20050;-84
2021/12/21 00:18:30;;;;;;;1.10;1.00;;;-2.70;99.90;;;;;;5159397;27;20055;-88
2021/12/21 00:23:46;;;;;;;0.90;0.90;;;-2.90;99.90;;;;;;5114980;28;20081;-88
2021/12/21 00:26:19;;;;;;;0.90;0.90;;;-3.00;99.90;;;;;;5115433;28;20047;-85
2021/12/21 00:28:54;;;;;;;0.90;0.90;;;-3.10;99.90;;;;;;5097999;28;20039;-88
2021/12/21 00:31:21;;;;;;;0.90;0.90;;;;;;;;;;5115563;28;20503;-85
2021/12/21 00:33:47;;;;;;;0.90;0.90;;;-3.20;99.90;;;;;;5115472;28;20089;-85
2021/12/21 00:36:16;;;;;;;0.98;0.93;;;-3.20;99.90;;;;;;5098208;28;20039;-86
2021/12/21 00:38:42;;;;;;;0.88;0.88;;;-3.00;99.90;;;;;;5114066;28;20044;-84
2021/12/21 00:41:07;;;;;;;0.90;0.90;;;-2.10;99.90;;;;;;5115016;28;20057;-85
2021/12/21 00:43:33;;;;;;;0.90;0.90;;;-3.10;99.90;;;;;;5148872;27;20293;-86
2021/12/21 00:45:59;;;;;;;0.90;0.90;;;-3.10;99.90;;;;;;5149238;27;20058;-85
2021/12/21 00:48:29;;;;;;;1.10;1.00;;;-3.00;99.90;;;;;;5149296;27;20506;-89
2021/12/21 00:51:00;;;;;;;0.82;0.82;;;-3.00;99.90;;;;;;5131730;27;20058;-84
2021/12/21 00:53:26;;;;;;;0.90;0.90;;;-3.00;99.90;;;;;;5114479;28;20051;-86
2021/12/21 00:55:53;;;;;;;3.30;3.10;;;-3.10;99.90;;;;;;5114382;28;20036;-88
2021/12/21 00:58:18;;;;;;;1.00;0.95;;;-3.20;99.90;;;;;;5097195;28;20035;-87
2021/12/21 01:00:44;;;;;;;1.02;1.00;;;-3.10;99.90;;;;;;5115897;28;20106;-86
2021/12/21 01:03:12;;;;;;;0.93;0.90;;;-3.30;99.90;;;;;;5148587;27;20522;-86
2021/12/21 01:05:48;;;;;;;0.98;0.98;;;-3.40;99.90;;;;;;5114064;28;20043;-86
2021/12/21 01:08:18;;;;;;;1.15;1.05;;;-3.40;99.90;;;;;;5114157;28;20043;-85
2021/12/21 01:11:04;;;;;;;4.00;2.03;;;-3.50;99.90;;;;;;5148854;27;20047;-87
2021/12/21 01:18:27;;;;;;;0.90;0.90;;;-3.50;99.90;;;;;;5114179;28;20430;-86
2021/12/21 01:23:44;;;;;;;0.90;0.90;;;-3.30;99.90;;;;;;5114144;28;20474;-85
2021/12/21 01:26:36;;;;;;;0.90;0.90;;;-3.30;99.90;;;;;;5114167;28;20134;-84
2021/12/21 01:29:32;;;;;;;0.90;0.90;;;-3.20;99.90;;;;;;5115189;28;20047;-86
2021/12/21 01:31:59;;;;;;;1.75;1.65;;;-3.80;99.90;;;;;;5113349;28;20392;-85
2021/12/21 01:34:40;;;;;;;0.90;0.90;;;-3.20;99.90;;;;;;5113558;28;20047;-86
2021/12/21 01:42:38;;;;;;;0.90;0.90;;;-3.20;99.90;;;;;;5113366;28;20040;-85
2021/12/21 01:50:33;;;;;;;0.90;0.90;;;-3.20;99.90;;;;;;5112948;28;20043;-87
2021/12/21 01:52:59;;;;;;;0.90;0.90;;;-3.10;99.90;;;;;;5147566;27;20046;-84
2021/12/21 01:55:24;;;;;;;1.13;1.03;;;-3.20;99.90;;;;;;5113232;28;20120;-86
2021/12/21 01:57:50;;;;;;;0.90;0.90;;;-3.20;99.90;;;;;;5113482;28;20032;-86
2021/12/21 02:00:17;;;;;;;1.00;0.98;;;-3.10;99.90;;;;;;5096341;28;20032;-86
2021/12/21 02:02:42;;;;;;;1.30;1.20;;;-3.10;99.90;;;;;;5114728;28;20063;-85
2021/12/21 02:05:08;;;;;;;1.10;1.00;;;-3.10;99.90;;;;;;5113656;28;20078;-85
2021/12/21 02:07:34;;;;;;;0.93;0.90;;;-3.20;99.90;;;;;;5099672;28;20092;-84
2021/12/21 02:10:00;;;;;;;0.98;0.98;;;-3.30;99.90;;;;;;5124642;28;20036;-85
2021/12/21 02:12:26;;;;;;;1.10;1.00;;;;;;;;;;5115777;28;20051;-85
2021/12/21 02:14:58;;;;;;;0.90;0.90;;;-3.10;99.90;;;;;;5096703;28;20224;-86
2021/12/21 02:20:08;;;;;;;0.90;0.90;;;-3.20;99.90;;;;;;5113199;28;20046;-85
2021/12/21 02:22:37;;;;;;;0.90;0.90;;;-3.10;99.90;;;;;;5114582;28;20043;-85
2021/12/21 02:25:32;;;;;;;0.85;0.85;;;-3.20;99.90;;;;;;5113085;28;20049;-87
2021/12/21 02:27:57;;;;;;;0.90;0.90;;;-3.20;99.90;;;;;;5133469;27;20048;-84
2021/12/21 02:30:24;;;;;;;0.90;0.90;;;-3.20;99.90;;;;;;5113106;28;20409;-84
2021/12/21 02:32:50;;;;;;;0.90;0.90;;;-3.20;99.90;;;;;;5114133;28;20551;-85
2021/12/21 02:35:16;;;;;;;0.90;0.90;;;-3.20;99.90;;;;;;5095939;28;20387;-86
2021/12/21 02:37:41;;;;;;;1.10;1.00;;;-3.20;99.90;;;;;;5113258;28;20038;-87
2021/12/21 02:40:08;;;;;;;1.10;1.00;;;-3.40;99.90;;;;;;5095944;28;20450;-86
2021/12/21 02:42:33;;;;;;;1.20;1.10;;;-3.50;99.90;;;;;;5112828;28;20044;-86
2021/12/21 02:44:59;;;;;;;0.90;0.90;;;-3.50;99.90;;;;;;5147266;27;20391;-85
2021/12/21 02:47:24;;;;;;;1.73;1.33;;;-3.60;99.90;;;;;;5095764;28;20406;-85
2021/12/21 02:49:50;;;;;;;0.90;0.90;;;-3.60;99.90;;;;;;5147121;27;20036;-85
2021/12/21 02:52:16;;;;;;;1.10;1.00;;;-3.70;99.90;;;;;;5112633;28;20059;-85
2021/12/21 02:54:42;;;;;;;1.03;0.97;;;-3.70;99.90;;;;;;5113975;28;20388;-86
2021/12/21 02:57:07;;;;;;;0.80;0.80;;;-3.70;99.90;;;;;;5114194;28;20027;-85
2021/12/21 02:59:33;;;;;;;0.90;0.90;;;-3.80;99.90;;;;;;5116748;28;20375;-84
2021/12/21 03:01:59;;;;;;;0.90;0.90;;;-3.80;99.90;;;;;;5132499;27;20042;-86
2021/12/21 03:04:25;;;;;;;0.90;0.90;;;-3.70;99.90;;;;;;5116837;28;20032;-85
2021/12/21 03:09:43;;;;;;;0.90;0.90;;;-3.70;99.90;;;;;;5116695;28;20128;-85
2021/12/21 03:14:49;;;;;;;1.30;1.20;;;-3.70;99.90;;;;;;5117819;28;20303;-85
2021/12/21 03:17:15;;;;;;;;;;;-3.60;99.90;;;;;;5116771;28;20544;-84
2021/12/21 03:19:41;;;;;;;0.90;0.90;;;-3.60;99.90;;;;;;5116809;28;19920;-84
2021/12/21 03:22:09;;;;;;;0.90;0.90;;;-3.60;99.90;;;;;;5117916;28;20035;-85
2021/12/21 03:24:35;;;;;;;0.90;0.90;;;-3.70;99.90;;;;;;5116668;28;20055;-84
2021/12/21 03:27:02;;;;;;;0.90;0.90;;;-3.70;99.90;;;;;;5117863;28;20028;-84
2021/12/21 03:29:28;;;;;;;0.93;0.90;;;-3.60;99.90;;;;;;5117808;28;20046;-85
2021/12/21 03:31:54;;;;;;;0.90;0.90;;;-3.40;99.90;;;;;;5116149;28;20169;-85
2021/12/21 03:34:20;;;;;;;0.90;0.90;;;-3.60;99.90;;;;;;5117507;28;20118;-84
2021/12/21 03:36:46;;;;;;;1.10;1.00;;;-3.60;99.90;;;;;;5117312;28;20083;-85
2021/12/21 03:39:17;;;;;;;0.90;0.90;;;-3.50;99.90;;;;;;5117159;28;20129;-84
2021/12/21 03:41:47;;;;;;;1.20;1.10;;;-3.70;99.90;;;;;;5116006;28;20044;-85
2021/12/21 03:44:14;;;;;;;1.00;1.00;;;-3.80;99.90;;;;;;5117237;28;20039;-84
2021/12/21 03:46:46;;;;;;;;;;;-3.80;99.90;;;;;;5116176;28;20096;-84
2021/12/21 03:49:50;;;;;;;1.10;1.00;;;-3.80;99.90;;;;;;5133006;27;19916;-84
2021/12/21 03:51:59;;;;;;;0.98;0.95;;;-3.90;99.90;;;;;;5115142;28;20051;-85
2021/12/21 03:54:25;;;;;;;;;;;-3.60;99.90;;;;;;5117251;28;20403;-85
2021/12/21 03:56:51;;;;;;;0.90;0.90;;;-4.00;99.90;;;;;;5115533;28;19916;-84
2021/12/21 03:59:18;;;;;;;;;;;-3.90;99.90;;;;;;5117289;28;20061;-85
2021/12/21 04:01:44;;;;;;;0.95;0.90;;;-3.80;99.90;;;;;;5116822;28;20287;-84
2021/12/21 04:04:10;;;;;;;0.90;0.90;;;-3.80;99.90;;;;;;5115822;28;20122;-86
2021/12/21 04:06:36;;;;;;;1.10;1.00;;;-3.80;99.90;;;;;;5116584;28;20499;-85
2021/12/21 04:09:05;;;;;;;1.10;1.00;;;-3.80;99.90;;;;;;5115551;28;20123;-84
2021/12/21 04:11:30;;;;;;;0.95;0.95;;;-3.90;99.90;;;;;;5116675;28;20031;-84
2021/12/21 04:13:56;;;;;;;0.90;0.90;;;-4.00;99.90;;;;;;5148308;27;20050;-84
2021/12/21 04:16:22;;;;;;;0.95;0.90;;;-4.20;99.90;;;;;;5115192;28;20075;-84
2021/12/21 04:18:48;;;;;;;1.00;0.97;;;-4.20;99.90;;;;;;5116548;28;20530;-83
2021/12/21 04:21:14;;;;;;;1.10;1.00;;;;;;;;;;5132091;27;20395;-84
2021/12/21 04:23:41;;;;;;;;;;;-4.30;99.90;;;;;;5115297;28;20123;-85
2021/12/21 04:26:10;;;;;;;1.10;1.00;;;-4.30;99.90;;;;;;5116433;28;20278;-84
2021/12/21 04:28:36;;;;;;;1.10;1.00;;;-4.30;99.90;;;;;;5115024;28;20062;-84
2021/12/21 04:31:04;;;;;;;1.10;1.00;;;-4.30;99.90;;;;;;5116031;28;20514;-85
2021/12/21 04:33:30;;;;;;;0.90;0.90;;;-4.30;99.90;;;;;;5114752;28;20039;-84
2021/12/21 04:35:56;;;;;;;1.05;1.00;;;-4.20;99.90;;;;;;5116081;28;20039;-84
2021/12/21 04:38:26;;;;;;;1.10;1.00;;;-4.20;99.90;;;;;;5116233;28;20035;-84
2021/12/21 04:41:02;;;;;;;2.90;2.25;;;-4.10;99.90;;;;;;5149406;27;20088;-84
2021/12/21 04:43:28;;;;;;;0.90;0.90;;;-4.00;99.90;;;;;;5116001;28;20036;-83
2021/12/21 04:45:53;;;;;;;1.10;1.00;;;-3.80;99.90;;;;;;5116200;28;20042;-85
2021/12/21 04:48:19;;;;;;;0.90;0.90;;;-3.90;99.90;;;;;;5131695;27;20529;-83
2021/12/21 04:50:45;;;;;;;1.10;1.00;;;-4.00;99.90;;;;;;5115854;28;20047;-84
2021/12/21 04:53:12;;;;;;;1.10;1.00;;;-4.10;99.90;;;;;;5116095;28;20058;-85
2021/12/21 04:55:37;;;;;;;1.10;1.00;;;-4.10;99.90;;;;;;5115965;28;20293;-85
2021/12/21 04:58:03;;;;;;;1.10;1.00;;;-4.20;99.90;;;;;;5097326;28;20035;-84
2021/12/21 05:00:29;;;;;;;0.90;0.90;;;-4.10;99.90;;;;;;5099370;28;20543;-84
2021/12/21 05:02:55;;;;;;;0.90;0.90;;;-4.20;99.90;;;;;;5151095;27;20045;-84
2021/12/21 05:05:21;;;;;;;0.93;0.90;;;-4.20;99.90;;;;;;5131818;27;20039;-83
2021/12/21 05:07:52;;;;;;;1.20;1.10;;;-4.20;99.90;;;;;;5115571;28;20550;-83
2021/12/21 05:10:19;;;;;;;1.10;1.00;;;-4.30;99.90;;;;;;5114367;28;20078;-84
2021/12/21 05:12:45;;;;;;;1.10;1.00;;;-4.30;99.90;;;;;;5115557;28;20054;-83
2021/12/21 05:15:11;;;;;;;1.10;1.00;;;-4.40;99.90;;;;;;5097045;28;20040;-84
2021/12/21 05:17:36;;;;;;;1.07;1.00;;;-4.40;99.90;;;;;;5114286;28;20058;-85
2021/12/21 05:20:03;;;;;;;0.90;0.90;;;-4.40;99.90;;;;;;5115541;28;20491;-85
2021/12/21 05:22:28;;;;;;;1.10;1.00;;;-4.40;99.90;;;;;;5115039;28;20074;-83
2021/12/21 05:24:54;;;;;;;1.10;1.00;;;-4.50;99.90;;;;;;5114919;28;20043;-85
2021/12/21 05:27:21;;;;;;;1.20;1.10;;;-4.50;99.90;;;;;;5115370;28;20119;-84
2021/12/21 05:29:46;;;;;;;1.10;1.00;;;-4.50;99.90;;;;;;5113738;28;20039;-84
2021/12/21 05:32:12;;;;;;;1.10;1.00;;;-4.50;99.90;;;;;;5115253;28;20391;-85
2021/12/21 05:34:38;;;;;;;1.10;1.00;;;-4.50;99.90;;;;;;5096778;28;20130;-84
2021/12/21 05:37:06;;;;;;;2.60;2.40;;;-4.60;99.90;;;;;;5113666;28;20411;-84
2021/12/21 05:39:43;;;;;;;0.90;0.90;;;-4.60;99.90;;;;;;5115118;27;20106;-83
2021/12/21 05:42:09;;;;;;;1.20;1.10;;;-4.50;99.90;;;;;;5115129;28;20130;-83
2021/12/21 05:44:35;;;;;;;1.17;1.08;;;-4.70;99.90;;;;;;5113773;28;20089;-84
2021/12/21 05:47:00;;;;;;;1.10;1.00;;;-4.90;99.90;;;;;;5113625;28;20031;-84
2021/12/21 05:49:26;;;;;;;1.30;1.20;;;-4.90;99.90;;;;;;5115178;28;20031;-84
2021/12/21 05:51:52;;;;;;;1.20;1.10;;;-5.00;99.90;;;;;;5147871;27;20047;-83
2021/12/21 05:54:21;;;;;;;1.08;1.00;;;-4.80;99.90;;;;;;5114743;28;20038;-85
2021/12/21 05:56:47;;;;;;;0.90;0.90;;;-4.80;99.90;;;;;;5114733;28;20040;-84
2021/12/21 05:59:12;;;;;;;1.10;1.00;;;-4.60;99.90;;;;;;5096295;28;20077;-85
2021/12/21 06:01:38;;;;;;;1.10;1.00;;;-4.60;99.90;;;;;;5114760;28;20082;-84
2021/12/21 06:04:04;;;;;;;0.90;0.90;;;-4.40;99.90;;;;;;5114705;28;20040;-85
2021/12/21 06:06:31;;;;;;;1.20;1.10;;;-4.40;99.90;;;;;;5096131;28;20547;-86
2021/12/21 06:09:00;;;;;;;1.10;1.00;;;-4.50;99.90;;;;;;5113089;28;20173;-85
2021/12/21 06:11:25;;;;;;;1.17;1.08;;;-4.50;99.90;;;;;;5114826;28;20399;-85
2021/12/21 06:25:21;;;;;;;1.13;1.02;;;-4.50;99.90;;;;;;5114469;28;20399;-85
2021/12/21 06:27:18;;;;;;;1.08;1.00;;;-4.40;99.90;;;;;;5113145;28;20399;-85
2021/12/21 06:29:43;;;;;;;1.10;1.00;;;-4.60;99.90;;;;;;5147219;27;20035;-84
2021/12/21 06:32:10;;;;;;;1.10;1.00;;;-4.60;99.90;;;;;;5112926;28;20032;-86
2021/12/21 06:34:35;;;;;;;1.17;1.08;;;-4.70;99.90;;;;;;5095904;28;20046;-86
2021/12/21 06:37:01;;;;;;;1.10;1.00;;;-4.70;99.90;;;;;;5114154;28;20475;-85
2021/12/21 06:39:28;;;;;;;1.10;1.00;;;-4.70;99.90;;;;;;5117188;28;20036;-85
2021/12/21 06:41:54;;;;;;;;;;;-4.70;99.90;;;;;;5100547;28;20502;-84
2021/12/21 06:44:20;;;;;;;1.10;1.00;;;-4.80;99.90;;;;;;5118470;28;19915;-85
2021/12/21 06:52:00;;;;;;;1.73;1.63;;;-4.70;99.90;;;;;;5117955;28;20147;-84
2021/12/21 06:54:26;;;;;;;1.25;1.15;;;-4.70;99.90;;;;;;5118284;28;20040;-87
2021/12/21 06:56:52;;;;;;;1.08;1.00;;;-4.60;99.90;;;;;;5133782;27;20494;-85
2021/12/21 06:59:18;;;;;;;1.10;1.00;;;-4.70;99.90;;;;;;5118472;28;20031;-87
2021/12/21 07:01:44;;;;;;;0.90;0.90;;;;;;;;;;5134732;27;20515;-85
2021/12/21 07:04:11;;;;;;;1.02;0.93;;;-4.70;99.90;;;;;;5100442;28;20127;-86
2021/12/21 07:06:38;;;;;;;1.10;1.00;;;-4.70;99.90;;;;;;5116871;28;20387;-84
2021/12/21 07:19:35;;;;;;;1.10;1.00;;;-4.70;99.90;;;;;;5117651;28;20126;-86
2021/12/21 07:22:01;;;;;;;1.10;1.00;;;-4.70;99.90;;;;;;5116596;28;20070;-86
2021/12/21 07:24:26;;;;;;;1.10;1.00;;;-4.60;99.90;;;;;;5116133;28;20031;-85
2021/12/21 07:26:52;;;;;;;1.30;1.20;;;-4.70;99.90;;;;;;5150628;27;20043;-86
2021/12/21 07:29:18;;;;;;;1.10;1.00;;;-4.70;99.90;;;;;;5099211;28;20044;-89
2021/12/21 07:31:44;;;;;;;1.10;1.00;;;-4.70;99.90;;;;;;5133817;27;20414;-85
2021/12/21 07:34:10;;;;;;;1.10;1.00;;;-4.70;99.90;;;;;;5116156;28;20589;-85
2021/12/21 07:36:36;;;;;;;1.20;1.10;;;-4.70;99.90;;;;;;5134509;27;20043;-87
2021/12/21 07:39:06;;;;;;;1.10;1.00;;;-4.50;99.90;;;;;;5134033;27;20452;-91
2021/12/21 07:41:32;;;;;;;1.05;1.00;;;-4.90;99.90;;;;;;5116729;28;20539;-90
2021/12/21 07:43:58;;;;;;;1.10;1.00;;;-4.90;99.90;;;;;;5099782;28;20033;-86
2021/12/21 07:46:24;;;;;;;1.13;1.03;;;-4.10;99.90;;;;;;5098930;28;20398;-87
2021/12/21 07:48:49;;;;;;;1.10;1.00;;;-4.60;99.90;;;;;;5115546;28;20050;-86
2021/12/21 07:51:15;;;;;;;1.10;1.00;;;-1.70;99.90;;;;;;5150077;27;20461;-87
2021/12/21 07:53:42;;;;;;;1.10;1.00;;;-4.50;99.90;;;;;;5098780;28;20088;-85
2021/12/21 07:56:08;;;;;;;1.30;1.20;;;-4.60;99.90;;;;;;5151661;27;20035;-85
2021/12/21 07:58:34;;;;;;;0.98;0.90;;;-4.70;99.90;;;;;;5117478;28;20041;-79
2021/12/21 08:01:01;;;;;;;1.10;1.00;;;-4.60;99.90;;;;;;5116675;28;20031;-84
2021/12/21 08:03:28;;;;;;;1.05;0.98;;;-4.60;99.90;;;;;;5115389;28;20040;-82
2021/12/21 08:05:56;;;;;;;;;;;-4.50;99.90;;;;;;5117332;28;20043;-85
2021/12/21 08:08:26;;;;;;;1.10;1.00;;;-4.50;99.90;;;;;;5132513;27;19923;-85
2021/12/21 08:10:55;;;;;;;1.10;1.00;;;-4.40;99.90;;;;;;5115553;28;20047;-84
2021/12/21 08:13:21;;;;;;;4.10;3.83;;;-4.40;99.90;;;;;;5115622;28;20043;-86
2021/12/21 08:15:47;;;;;;;1.10;1.00;;;-4.40;99.90;;;;;;5117505;28;20096;-84
2021/12/21 08:18:14;;;;;;;0.90;0.90;;;-4.10;99.90;;;;;;5117112;28;20039;-86
2021/12/21 08:20:41;;;;;;;1.20;1.10;;;-4.50;99.90;;;;;;5126395;27;20032;-86
2021/12/21 08:23:07;;;;;;;1.20;1.10;;;-4.50;99.90;;;;;;5121021;28;20035;-86
2021/12/21 08:25:35;;;;;;;4.03;3.70;;;-4.60;99.90;;;;;;5137592;28;20050;-88
2021/12/21 08:28:01;;;;;;;1.45;1.35;;;-4.40;99.90;;;;;;5120507;28;20046;-86
2021/12/21 08:30:27;;;;;;;1.40;1.30;;;-4.50;99.90;;;;;;5119078;28;20050;-87
2021/12/21 08:32:54;;;;;;;1.23;1.13;;;-4.50;99.90;;;;;;5102750;28;20510;-87
2021/12/21 08:35:20;;;;;;;1.17;1.08;;;-4.40;99.90;;;;;;5115347;28;20045;-86
2021/12/21 08:37:52;;;;;;;4.13;3.72;;;-4.30;99.90;;;;;;5100939;28;20040;-85
2021/12/21 08:40:22;;;;;;;1.00;1.00;;;-4.70;99.90;;;;;;5100721;28;20039;-81
2021/12/21 08:42:50;;;;;;;1.00;1.00;;;-4.20;99.90;;;;;;5118052;28;20039;-88
2021/12/21 08:45:16;;;;;;;1.00;0.90;;;-4.00;99.90;;;;;;5099113;28;20043;-87
2021/12/21 08:47:42;;;;;;;1.05;1.00;;;-4.10;99.90;;;;;;5098400;28;20036;-84
2021/12/21 08:50:10;;;;;;;0.90;0.90;;;-4.10;99.90;;;;;;5132669;27;20144;-84
2021/12/21 08:52:36;;;;;;;1.10;1.00;;;-4.10;99.90;;;;;;5098105;28;20059;-86
2021/12/21 08:55:05;;;;;;;1.23;1.13;;;-4.10;99.90;;;;;;5132273;27;20043;-81
2021/12/21 08:57:31;;;;;;;1.30;1.20;;;-4.10;99.90;;;;;;5098748;28;20043;-81
2021/12/21 08:59:57;;;;;;;1.57;1.47;;;-4.00;99.90;;;;;;5097591;28;20039;-84
2021/12/21 09:02:22;;;;;;;1.63;1.53;;;-4.00;99.90;;;;;;5098179;28;20035;-86
2021/12/21 09:04:48;;;;;;;1.00;1.00;;;-3.90;99.90;;;;;;5132578;27;20097;-84
2021/12/21 09:07:15;;;;;;;1.00;1.00;;;-3.80;99.90;;;;;;5133044;27;20047;-89
2021/12/21 09:09:40;;;;;;;1.40;1.30;;;-3.60;99.90;;;;;;5097772;28;20491;-81
2021/12/21 09:12:07;;;;;;;1.10;1.00;;;-3.60;99.90;;;;;;5148703;27;20127;-80
2021/12/21 09:14:32;;;;;;;1.02;0.95;;;-3.50;99.90;;;;;;5114394;28;20429;-81
2021/12/21 09:17:00;;;;;;;1.73;1.63;;;-3.50;99.90;;;;;;5115701;28;20035;-84
2021/12/21 09:19:26;;;;;;;1.52;1.42;;;-3.50;99.90;;;;;;5113942;28;20483;-84
2021/12/21 09:21:51;;;;;;;1.10;1.00;;;-3.30;99.90;;;;;;5131658;27;20039;-85
2021/12/21 09:24:17;;;;;;;1.20;1.10;;;-3.30;99.90;;;;;;5131698;27;20581;-82
2021/12/21 09:26:43;;;;;;;1.77;1.63;;;-3.20;99.90;;;;;;5148652;27;20506;-86
2021/12/21 09:29:09;;;;;;;1.10;1.00;;;-3.10;99.90;;;;;;5131030;27;20483;-83
2021/12/21 09:31:34;;;;;;;5.73;5.13;;;-2.90;99.90;;;;;;5096503;28;20043;-84
2021/12/21 09:34:00;;;;;;;1.00;1.00;;;-2.90;99.90;;;;;;5080028;28;20050;-82
2021/12/21 09:36:28;;;;;;;1.17;1.07;;;-2.80;99.90;;;;;;5096876;28;20127;-82
2021/12/21 09:38:54;;;;;;;0.90;0.90;;;-2.80;99.90;;;;;;5131027;27;20099;-82
2021/12/21 09:41:20;;;;;;;0.90;0.90;;;-2.80;99.90;;;;;;5096884;28;20438;-84
2021/12/21 09:43:46;;;;;;;0.93;0.93;;;-2.70;99.90;;;;;;5130605;27;20040;-84
2021/12/21 09:46:12;;;;;;;1.20;1.10;;;-2.70;99.90;;;;;;5114063;28;20500;-85
2021/12/21 09:48:38;;;;;;;1.10;1.00;;;-2.60;99.90;;;;;;5096539;28;20046;-85
2021/12/21 09:51:05;;;;;;;1.10;1.00;;;-2.50;99.90;;;;;;5113566;28;20518;-85
2021/12/21 09:53:33;;;;;;;0.98;0.98;;;-2.60;99.90;;;;;;5114796;28;20278;-85
2021/12/21 09:56:00;;;;;;;1.15;1.05;;;-2.30;99.90;;;;;;5113014;28;20036;-87
2021/12/21 09:58:25;;;;;;;1.25;1.15;;;-2.20;99.90;;;;;;5113548;28;20036;-89
2021/12/21 10:00:51;;;;;;;0.97;0.97;;;-2.10;99.90;;;;;;5130653;27;20368;-85
2021/12/21 10:03:17;;;;;;;1.00;0.90;;;-2.10;99.90;;;;;;5147254;27;20073;-86
2021/12/21 10:05:44;;;;;;;1.10;1.00;;;-2.00;99.90;;;;;;5096112;28;20399;-83
2021/12/21 10:08:13;;;;;;;0.90;0.90;;;-1.90;99.90;;;;;;5096363;28;20044;-83
2021/12/21 10:10:41;;;;;;;1.10;1.00;;;-1.80;99.90;;;;;;5113279;28;20046;-81
2021/12/21 10:13:13;;;;;;;2.25;0.95;;;-1.70;99.90;;;;;;5114279;28;20509;-83
2021/12/21 10:15:47;;;;;;;0.90;0.90;;;-1.60;99.90;;;;;;5114286;28;20122;-82
2021/12/21 10:18:20;;;;;;;0.98;0.98;;;-1.60;99.90;;;;;;5114884;28;20071;-87
2021/12/21 10:20:47;;;;;;;0.90;0.90;;;-1.70;99.90;;;;;;5096186;28;20089;-84
2021/12/21 10:23:19;;;;;;;3.92;1.25;;;-1.40;99.90;;;;;;5112862;28;20051;-84
2021/12/21 10:25:55;;;;;;;1.02;1.00;;;-1.40;99.90;;;;;;5114421;28;20397;-83
2021/12/21 10:28:33;;;;;;;1.27;1.17;;;-1.30;99.90;;;;;;5113661;28;20126;-81
2021/12/21 10:31:00;;;;;;;;;;;-1.20;99.90;;;;;;5096805;28;20161;-86
2021/12/21 10:33:27;;;;;;;0.80;0.80;;;0.00;99.90;;;;;;5130163;27;19916;-87
2021/12/21 10:35:57;;;;;;;0.85;0.85;;;-1.10;99.90;;;;;;5096198;28;20050;-88
2021/12/21 10:38:28;;;;;;;0.80;0.80;;;-0.90;99.90;;;;;;5096119;28;20043;-88
2021/12/21 10:40:56;;;;;;;0.80;0.80;;;-0.90;99.90;;;;;;5096159;28;20188;-87
2021/12/21 10:43:27;;;;;;;0.90;0.90;;;-0.80;99.90;;;;;;5096153;28;20042;-87
2021/12/21 10:45:53;;;;;;;1.00;1.00;;;-0.60;99.90;;;;;;5096309;28;20050;-89
2021/12/21 10:48:20;;;;;;;2.15;1.90;;;;;;;;;;5130829;27;20036;-86
2021/12/21 10:50:49;;;;;;;1.75;1.65;;;-0.50;99.90;;;;;;5096820;28;20051;-83
2021/12/21 10:53:26;;;;;;;1.13;1.10;;;-0.60;99.90;;;;;;5112991;28;20039;-85
2021/12/21 10:56:07;;;;;;;1.23;1.13;;;-0.60;99.90;;;;;;5114014;28;20051;-85
2021/12/21 10:58:38;;;;;;;0.90;0.90;;;-0.50;99.90;;;;;;5112591;28;20035;-84
2021/12/21 11:01:08;;;;;;;1.17;1.08;;;-0.40;99.90;;;;;;5096199;28;20415;-85
2021/12/21 11:03:45;;;;;;;0.98;0.98;;;-0.30;99.90;;;;;;5095856;28;20047;-81
2021/12/21 11:06:17;;;;;;;1.10;1.00;;;-0.30;99.90;;;;;;5115620;28;20047;-82
2021/12/21 11:08:48;;;;;;;5.95;2.75;;;-0.10;99.90;;;;;;5114220;28;20066;-85
2021/12/21 11:11:28;;;;;;;0.80;0.80;;;0.00;99.90;;;;;;5114893;28;20043;-84
2021/12/21 11:14:12;;;;;;;0.90;0.90;;;0.00;99.90;;;;;;5116949;28;20043;-81
2021/12/21 11:16:45;;;;;;;0.80;0.80;;;0.10;99.90;;;;;;5118526;28;20051;-81
2021/12/21 11:19:12;;;;;;;0.80;0.80;;;0.20;99.90;;;;;;5114067;28;20118;-81
2021/12/21 11:21:38;;;;;;;1.80;1.60;;;0.30;99.90;;;;;;5114691;28;20028;-78
2021/12/21 11:24:08;;;;;;;1.15;1.05;;;0.40;99.90;;;;;;5117537;28;20047;-82
2021/12/21 11:26:35;;;;;;;1.42;1.33;;;0.50;99.90;;;;;;5117124;28;20050;-86
2021/12/21 11:29:02;;;;;;;;;;;0.60;99.90;;;;;;5118643;28;20126;-83
2021/12/21 11:31:28;;;;;;;0.80;0.80;;;0.60;99.90;;;;;;5116475;28;19970;-84
2021/12/21 11:33:58;;;;;;;1.63;1.52;;;0.70;99.90;;;;;;5117156;28;20043;-81
2021/12/21 11:39:08;;;;;;;0.90;0.90;;;0.80;99.90;;;;;;5116686;28;20101;-83
2021/12/21 11:41:36;;;;;;;1.40;1.30;;;0.90;99.90;;;;;;5115812;28;20467;-83
2021/12/21 11:44:29;;;;;;;2.65;2.45;;;1.10;99.90;;;;;;5117281;28;20057;-86
2021/12/21 11:47:01;;;;;;;0.80;0.80;;;1.10;99.90;;;;;;5115846;28;20483;-88
2021/12/21 11:49:35;;;;;;;0.80;0.80;;;1.20;99.90;;;;;;5098908;28;20110;-84
2021/12/21 11:52:14;;;;;;;0.85;0.85;;;1.30;99.90;;;;;;5116684;28;20059;-84
2021/12/21 11:55:04;;;;;;;0.82;0.82;;;1.30;99.90;;;;;;5115895;28;20040;-84
2021/12/21 11:57:39;;;;;;;1.75;1.65;;;1.40;99.90;;;;;;5116366;28;20038;-84
2021/12/21 12:00:14;;;;;;;1.35;1.25;;;1.50;99.90;;;;;;5116627;28;20582;-84
2021/12/21 12:02:42;;;;;;;1.25;1.15;;;1.50;99.90;;;;;;5116844;28;20031;-84
2021/12/21 12:05:31;;;;;;;0.80;0.80;;;1.50;99.90;;;;;;5116708;28;20048;-83
2021/12/21 12:08:04;;;;;;;0.90;0.90;;;1.60;99.90;;;;;;5116714;28;20040;-84
2021/12/21 12:10:31;;;;;;;0.70;0.70;;;1.50;99.90;;;;;;5116817;27;20062;-83
2021/12/21 12:13:11;;;;;;;0.82;0.82;;;1.60;99.90;;;;;;5116610;28;20043;-83
2021/12/21 12:15:51;;;;;;;1.42;1.25;;;1.70;99.90;;;;;;5116467;28;20475;-84
2021/12/21 12:18:41;;;;;;;0.90;0.90;;;1.70;99.90;;;;;;5099642;28;20051;-82
2021/12/21 12:21:12;;;;;;;1.10;1.02;;;1.80;99.90;;;;;;5116553;28;20508;-83
2021/12/21 12:24:04;;;;;;;1.25;1.15;;;1.80;99.90;;;;;;5114966;28;20384;-84
2021/12/21 12:26:36;;;;;;;0.95;0.90;;;1.90;99.90;;;;;;5116323;28;20161;-84
2021/12/21 12:29:14;;;;;;;1.17;1.08;;;1.90;99.90;;;;;;5097870;28;20149;-83
2021/12/21 12:31:40;;;;;;;;;;;1.10;99.90;;;;;;5115514;28;20127;-83
2021/12/21 12:34:07;;;;;;;0.90;0.90;;;1.90;99.90;;;;;;5114146;28;19916;-82
2021/12/21 12:36:39;;;;;;;0.70;0.70;;;1.90;99.90;;;;;;5115900;28;20414;-82
2021/12/21 12:39:07;;;;;;;1.48;1.27;;;1.90;99.90;;;;;;5097592;28;20467;-81
2021/12/21 12:41:46;;;;;;;1.00;0.95;;;2.00;99.90;;;;;;5116172;28;20036;-82
2021/12/21 12:44:24;;;;;;;0.70;0.70;;;2.00;99.90;;;;;;5115995;28;20028;-82
2021/12/21 12:46:56;;;;;;;0.70;0.70;;;2.00;99.90;;;;;;5115129;27;20050;-82
2021/12/21 12:49:23;;;;;;;0.90;0.90;;;2.00;99.90;;;;;;5114830;28;20100;-82
2021/12/21 12:51:49;;;;;;;0.80;0.80;;;2.10;99.90;;;;;;5097108;28;20113;-82
2021/12/21 12:54:17;;;;;;;0.82;0.82;;;2.10;99.90;;;;;;5109416;28;20032;-77
2021/12/21 12:56:43;;;;;;;2.70;2.10;;;2.10;99.90;;;;;;5108044;28;20433;-79
2021/12/21 12:59:09;;;;;;;0.90;0.90;;;2.10;99.90;;;;;;5106392;28;20032;-83
2021/12/21 13:01:48;;;;;;;0.80;0.80;;;2.10;99.90;;;;;;5096374;28;20048;-81
2021/12/21 13:04:15;;;;;;;0.70;0.70;;;2.20;99.90;;;;;;5109157;28;20040;-80
2021/12/21 13:06:46;;;;;;;0.70;0.70;;;2.10;99.90;;;;;;5102292;28;20523;-81
2021/12/21 13:09:15;;;;;;;1.50;1.00;;;2.20;99.90;;;;;;5093758;28;20080;-82
2021/12/21 13:11:41;;;;;;;0.70;0.70;;;2.20;99.90;;;;;;5093391;28;20051;-80
2021/12/21 13:14:09;;;;;;;0.70;0.70;;;2.10;99.90;;;;;;5094850;28;20040;-83
2021/12/21 13:16:36;;;;;;;4.18;3.90;;;2.20;99.90;;;;;;5094798;28;20119;-82
2021/12/21 13:19:10;;;;;;;0.80;0.80;;;2.20;99.90;;;;;;5094924;28;20081;-83
2021/12/21 13:21:44;;;;;;;0.65;0.65;;;2.20;99.90;;;;;;5076982;28;20043;-83
2021/12/21 13:24:22;;;;;;;0.80;0.80;;;2.20;99.90;;;;;;5093538;28;20122;-83
2021/12/21 13:26:52;;;;;;;1.00;1.00;;;2.10;99.90;;;;;;5076660;28;20039;-84
2021/12/21 13:29:25;;;;;;;0.80;0.80;;;2.10;99.90;;;;;;5093791;28;20044;-81
2021/12/21 13:31:52;;;;;;;0.80;0.80;;;2.10;99.90;;;;;;5094342;28;20476;-81
2021/12/21 13:34:20;;;;;;;0.70;0.70;;;2.10;99.90;;;;;;5094789;28;20051;-82
2021/12/21 13:36:55;;;;;;;0.88;0.88;;;2.10;99.90;;;;;;5093216;28;20100;-86
2021/12/21 13:39:24;;;;;;;1.23;0.80;;;2.10;99.90;;;;;;5093864;28;20043;-80
2021/12/21 13:42:15;;;;;;;0.70;0.70;;;2.10;99.90;;;;;;5095230;28;20471;-84
2021/12/21 13:44:45;;;;;;;0.70;0.70;;;2.10;99.90;;;;;;5102818;28;20052;-84
2021/12/21 13:47:14;;;;;;;1.02;0.75;;;2.00;99.90;;;;;;5087709;28;20040;-79
2021/12/21 13:49:57;;;;;;;0.77;0.77;;;2.00;99.90;;;;;;5093670;28;20048;-80
2021/12/21 13:52:25;;;;;;;0.77;0.77;;;2.00;99.90;;;;;;5106756;28;20624;-80
2021/12/21 13:54:51;;;;;;;3.00;1.88;;;2.00;99.90;;;;;;5114245;28;20054;-78
2021/12/21 13:57:19;;;;;;;0.88;0.88;;;1.90;99.90;;;;;;5114689;28;20032;-77
2021/12/21 13:59:54;;;;;;;1.95;1.85;;;1.90;99.90;;;;;;5101642;28;20132;-81
2021/12/21 14:02:25;;;;;;;0.70;0.70;;;1.80;99.90;;;;;;5102892;28;20032;-83